METAR Data
IDs: Format: Raw Decoded Include TAF

Data at: 1240 UTC 15 Jul 2020

KAQX 151235Z AUTO 00000KT 9SM CLR 26/24 A3006 RMK AO2
KAQX 151215Z AUTO 00000KT 9SM CLR 25/24 A3006 RMK AO2
KAQX 151155Z AUTO 00000KT 9SM CLR 25/24 A3005 RMK AO2
KAQX 151135Z AUTO 00000KT 7SM CLR 24/24 A3004 RMK AO2
KAQX 151115Z AUTO 00000KT 7SM CLR 23/23 A3004 RMK AO2
KAQX 151055Z AUTO 00000KT 5SM BR CLR 23/23 A3003 RMK AO2
KAQX 151035Z AUTO 00000KT 6SM BR CLR 23/23 A3003 RMK AO2
KAQX 151015Z AUTO 00000KT 8SM CLR 23/23 A3002 RMK AO2
KAQX 150955Z AUTO 00000KT 9SM CLR 23/23 A3001 RMK AO2
KAQX 150935Z AUTO 00000KT 9SM CLR 24/23 A3000 RMK AO2
KAQX 150915Z AUTO 00000KT 10SM CLR 24/23 A3000 RMK AO2
KAQX 150855Z AUTO 00000KT 10SM CLR 24/24 A3000 RMK AO2
KAQX 150835Z AUTO 00000KT 10SM CLR 24/24 A3000 RMK AO2
KAQX 150815Z AUTO 00000KT 10SM CLR 24/24 A3000 RMK AO2
KAQX 150755Z AUTO 00000KT 10SM CLR 25/24 A3000 RMK AO2
KAQX 150735Z AUTO 00000KT 10SM CLR 25/24 A3000 RMK AO2
KAQX 150715Z AUTO 00000KT 10SM CLR 24/24 A3000 RMK AO2
KAQX 150655Z AUTO 00000KT 10SM CLR 25/24 A3000 RMK AO2
KAQX 150635Z AUTO 00000KT 10SM CLR 25/24 A3000 RMK AO2
KAQX 150615Z AUTO 00000KT 10SM CLR 25/24 A3000 RMK AO2
KAQX 150555Z AUTO 00000KT 9SM CLR 26/24 A3000 RMK AO2
KAQX 150535Z AUTO 00000KT 10SM CLR 25/24 A3001 RMK AO2
KAQX 150515Z AUTO 00000KT 10SM CLR 26/24 A3002 RMK AO2
KAQX 150455Z AUTO 00000KT 10SM CLR 26/24 A3002 RMK AO2
KAQX 150435Z AUTO 00000KT 10SM CLR 27/24 A3003 RMK AO2
KAQX 150415Z AUTO 00000KT 10SM CLR 27/24 A3002 RMK AO2
KAQX 150355Z AUTO 15004KT 10SM CLR 27/24 A3003 RMK AO2
KAQX 150335Z AUTO 00000KT 10SM CLR 27/24 A3003 RMK AO2
KAQX 150315Z AUTO 00000KT 10SM CLR 27/24 A3002 RMK AO2
KAQX 150255Z AUTO 00000KT 10SM CLR 27/24 A3002 RMK AO2
KAQX 150235Z AUTO VRB03KT 3SM HZ CLR 27/23 A3002 RMK AO2
KAQX 150215Z AUTO 00000KT 10SM CLR 27/22 A3000 RMK AO2
KAQX 150155Z AUTO 00000KT 10SM CLR 27/22 A3000 RMK AO2
KAQX 150135Z AUTO 00000KT 10SM CLR 27/22 A3000 RMK AO2
KAQX 150115Z AUTO 00000KT 10SM FEW085 28/22 A2999 RMK AO2
KAQX 150055Z AUTO 00000KT 10SM FEW085 29/22 A2999 RMK AO2
KAQX 150035Z AUTO 00000KT 10SM CLR 29/22 A2998 RMK AO2
KAQX 150015Z AUTO 00000KT 10SM FEW080 30/22 A2998 RMK AO2
KAQX 142355Z AUTO 00000KT 10SM FEW085 31/21 A2998 RMK AO2
KAQX 142335Z AUTO 00000KT 10SM CLR 33/20 A2997 RMK AO2
KAQX 142315Z AUTO 00000KT 10SM CLR 33/19 A2997 RMK AO2
KAQX 142255Z AUTO 00000KT 10SM CLR 34/19 A2996 RMK AO2
KAQX 142235Z AUTO 00000KT 10SM CLR 34/18 A2995 RMK AO2
KAQX 142215Z AUTO 00000KT 10SM SCT080 34/18 A2995 RMK AO2
KAQX 142155Z AUTO 22003KT 10SM BKN080 34/19 A2995 RMK AO2
KAQX 142135Z AUTO 00000KT 10SM SCT075 35/18 A2995 RMK AO2
KAQX 142115Z AUTO 00000KT 6SM HZ FEW070 SCT085 35/19 A2995 RMK AO2
KAQX 142055Z AUTO 00000KT 10SM FEW070 BKN090 34/19 A2995 RMK AO2
KAQX 142035Z AUTO 00000KT 10SM BKN080 34/19 A2995 RMK AO2
KAQX 142015Z AUTO 00000KT 10SM FEW080 36/19 A2995 RMK AO2
KAQX 141955Z AUTO 19006KT 10SM SCT080 35/18 A2995 RMK AO2
KAQX 141935Z AUTO 00000KT 9SM FEW080 SCT090 35/19 A2996 RMK AO2
KAQX 141915Z AUTO 00000KT 10SM SCT090 35/19 A2996 RMK AO2
KAQX 141855Z AUTO VRB03KT 10SM CLR 35/19 A2996 RMK AO2
KAQX 141835Z AUTO 22004KT 10SM FEW090 35/20 A2996 RMK AO2
KAQX 141815Z AUTO VRB03KT 10SM FEW090 35/20 A2997 RMK AO2
KAQX 141755Z AUTO 00000KT 10SM SCT085 34/20 A2998 RMK AO2
KAQX 141735Z AUTO VRB04KT 9SM FEW065 SCT080 34/21 A2998 RMK AO2
KAQX 141715Z AUTO VRB05KT 10SM FEW055 FEW065 34/22 A2998 RMK AO2
KAQX 141655Z AUTO VRB04KT 10SM CLR 34/21 A2998 RMK AO2
KAQX 141635Z AUTO 00000KT 10SM FEW060 FEW080 FEW090 34/21 A2998 RMK AO2
KAQX 141615Z AUTO VRB04KT 10SM FEW060 SCT075 SCT090 34/22 A2998 RMK AO2
KAQX 141555Z AUTO 17005KT 10SM CLR 33/23 A2998 RMK AO2
KAQX 141535Z AUTO VRB03KT 10SM CLR 32/23 A2999 RMK AO2
KAQX 141515Z AUTO VRB03KT 10SM CLR 32/24 A2999 RMK AO2
KAQX 141455Z AUTO 00000KT 9SM CLR 31/24 A2999 RMK AO2
KAQX 141435Z AUTO 00000KT 10SM CLR 31/24 A2999 RMK AO2
KAQX 141415Z AUTO 00000KT 10SM CLR 30/24 A2999 RMK AO2
KAQX 141355Z AUTO 00000KT 10SM CLR 29/24 A2998 RMK AO2
KAQX 141335Z AUTO 00000KT 10SM CLR 30/24 A2998 RMK AO2
KAQX 141315Z AUTO 00000KT 10SM CLR 29/24 A2997 RMK AO2
KAQX 141255Z AUTO 00000KT 9SM CLR 28/24 A2997 RMK AO2
KAQX 141235Z AUTO 00000KT 10SM CLR 27/24 A2996 RMK AO2
KAQX 141215Z AUTO 00000KT 10SM CLR 26/23 A2996 RMK AO2
KAQX 141155Z AUTO 00000KT 9SM CLR 26/23 A2995 RMK AO2
KAQX 141135Z AUTO 00000KT 10SM CLR 25/23 A2994 RMK AO2
KAQX 141115Z AUTO 00000KT 10SM CLR 24/23 A2994 RMK AO2
KAQX 141055Z AUTO 00000KT 4SM BR CLR 23/23 A2993 RMK AO2
KAQX 141035Z AUTO 00000KT 6SM BR CLR 23/23 A2992 RMK AO2
KAQX 140955Z AUTO 00000KT 10SM CLR 23/23 A2992 RMK AO2
KAQX 140935Z AUTO 00000KT 10SM CLR 23/23 A2992 RMK AO2
KAQX 140915Z AUTO 00000KT 10SM CLR 23/23 A2991 RMK AO2
KAQX 140855Z AUTO 00000KT 10SM CLR 23/23 A2990 RMK AO2
KAQX 140835Z AUTO 00000KT 10SM CLR 24/23 A2990 RMK AO2
KAQX 140815Z AUTO 00000KT 10SM CLR 24/23 A2990 RMK AO2
KAQX 140715Z AUTO 00000KT 10SM CLR 25/23 A2989 RMK AO2
KAQX 140655Z AUTO 00000KT 10SM CLR 25/23 A2989 RMK AO2
KAQX 140635Z AUTO 00000KT 10SM CLR 25/23 A2990 RMK AO2
KAQX 140615Z AUTO 00000KT 10SM CLR 25/23 A2990 RMK AO2
KAQX 140555Z AUTO 00000KT 10SM CLR 26/23 A2990 RMK AO2
KAQX 140535Z AUTO 00000KT 10SM CLR 26/23 A2991 RMK AO2
KAQX 140515Z AUTO 00000KT 10SM CLR 25/24 A2991 RMK AO2
KAQX 140455Z AUTO 00000KT 10SM CLR 25/24 A2991 RMK AO2
KAQX 140435Z AUTO 00000KT 10SM CLR 25/24 A2991 RMK AO2
KAQX 140415Z AUTO 00000KT 10SM CLR 26/24 A2991 RMK AO2
KAQX 140355Z AUTO 00000KT 10SM CLR 26/24 A2990 RMK AO2
KAQX 140335Z AUTO 00000KT 10SM CLR 26/24 A2991 RMK AO2
KAQX 140315Z AUTO 00000KT 10SM CLR 27/24 A2990 RMK AO2
KAQX 140255Z AUTO 00000KT 10SM CLR 27/24 A2990 RMK AO2
KAQX 140235Z AUTO 00000KT 10SM CLR 27/24 A2990 RMK AO2
KAQX 140215Z AUTO 00000KT 10SM CLR 27/24 A2989 RMK AO2
KAQX 140155Z AUTO 00000KT 10SM CLR 28/24 A2988 RMK AO2
KAQX 140135Z AUTO 00000KT 10SM CLR 28/24 A2987 RMK AO2
KAQX 140115Z AUTO 00000KT 10SM CLR 29/24 A2986 RMK AO2
KAQX 140055Z AUTO 00000KT 10SM CLR 30/23 A2986 RMK AO2 LTG DSNT E